< < Back
Terminal Aerodrome Forecast


Current Version              Previous Versions:   1  2  3  4  5  6  7  8  9  

Terminal Aerodrome Forecast

676
FTAK31 PAJN 262324
TAFAHN
TAF
PAHN 262324Z 2700/2724 30010G20KT P6SM SCT070 BKN100
      TEMPO 2700/2703 20020G30KT
     FM270600 30010KT P6SM FEW020 BKN100
     FM271200 30015G25KT P6SM SCT100
     FM272000 29012KT P6SM SCT100
      AMD LTD TO CLD VIS AND WIND=

Latest METAR

255
SAUS70 KWBC 270500
MTRAHN
METAR KAHN 270451Z AUTO 00000KT 10SM SCT065 BKN090 24/23 A3012 RMK AO2
SLP189 T02440233 403440222


USA.gov is the U.S. government's official web portal to all federal, state and local government web resources and services.